Flight Track Log - Related Links

Times and Time Zones

All times are in EDT time to prevent confusion due to time zone crossing. See the SWA3625 flight status page for this flight to view local times or setup timezone preferences in your user account.

Time Position Orientation Groundspeed Altitude Reporting Facility
EDT Latitude Longitude Course Direction KTS MPH feet Rate Location/Type
Sat 09:47:31 AM 29.6131 -95.2508 149° Southeast 176 203 1,700  Level Houston Center
Sat 09:48:04 AM 29.5889 -95.2328 147° Southeast 201 231 2,800 2,262 Climbing Houston Center
Sat 09:48:32 AM 29.5539 -95.2244 168° South 248 285 4,000 2,557 Climbing Houston Center
Sat 09:49:05 AM 29.5244 -95.2392 204° Southwest 247 284 5,400 3,836 Climbing Houston Center
Sat 09:49:33 AM 29.4853 -95.2569 202° Southwest 260 299 7,900 3,871 Climbing Houston Center
Sat 09:50:07 AM 29.4586 -95.2700 203° Southwest 258 297 9,400 2,337 Climbing Houston Center
Sat 09:51:08 AM 29.3825 -95.3064 203° Southwest 291 335 11,600 3,000 Climbing Houston Center
Sat 09:52:09 AM 29.2947 -95.3469 202° Southwest 335 386 15,500 3,000 Climbing Houston Center
Sat 09:53:10 AM 29.2133 -95.4036 211° Southwest 344 396 17,700 2,661 Climbing Houston Center
Sat 09:54:13 AM 29.1156 -95.4797 214° Southwest 352 405 21,000 2,439 Climbing Houston Center
Sat 09:55:13 AM 29.0275 -95.5483 214° Southwest 380 437 22,700 2,231 Climbing Houston Center
Sat 09:56:14 AM 28.9372 -95.6172 214° Southwest 390 449 25,500 2,341 Climbing Houston Center
Sat 09:57:16 AM 28.8494 -95.6856 214° Southwest 383 441 27,500 2,274 Climbing Houston Center
Sat 09:58:18 AM 28.7625 -95.7531 214° Southwest 380 437 30,200 2,361 Climbing Houston Center
Sat 09:59:18 AM 28.6819 -95.8164 215° Southwest 359 413 32,300 1,672 Climbing Houston Center
Sat 10:00:20 AM 28.5975 -95.8794 213° Southwest 358 412 33,600 829 Climbing Houston Center
Sat 10:01:21 AM 28.5139 -95.9450 215° Southwest 364 419 34,000 195 Climbing Houston Center
Sat 10:02:23 AM 28.4158 -96.0186 213° Southwest 368 423 34,000  Level Houston Center
Sat 10:03:24 AM 28.3317 -96.0833 214° Southwest 367 422 34,000  Level Houston Center
Sat 10:04:25 AM 28.2483 -96.1472 214° Southwest 364 419 34,000  Level Houston Center
Sat 10:05:27 AM 28.1647 -96.2114 214° Southwest 363 418 34,000  Level Houston Center
Sat 10:06:28 AM 28.0817 -96.2736 213° Southwest 360 414 34,000  Level Houston Center
Sat 10:07:30 AM 27.9989 -96.3386 215° Southwest 360 414 34,000  Level Houston Center
Sat 10:08:31 AM 27.9064 -96.4078 213° Southwest 360 414 34,000  Level Houston Center
Sat 10:09:33 AM 27.8131 -96.4781 214° Southwest 361 415 34,000  Level Houston Center
Sat 10:10:34 AM 27.7275 -96.5417 213° Southwest 362 417 34,000  Level Houston Center
Sat 10:11:36 AM 27.6414 -96.6069 214° Southwest 363 418 34,000  Level Houston Center
Sat 10:12:37 AM 27.5556 -96.6722 214° Southwest 363 418 34,000  Level Houston Center
Sat 10:13:39 AM 27.4692 -96.7358 213° Southwest 363 418 34,000  Level Houston Center
Sat 10:14:41 AM 27.3836 -96.8000 214° Southwest 363 418 34,000 -780 Level Houston Center
Sat 10:15:42 AM 27.2989 -96.8633 214° Southwest 360 414 32,400 -2,341 Descending Houston Center
Sat 10:16:44 AM 27.2142 -96.9275 214° Southwest 359 413 29,200 -2,780 Descending Houston Center
Sat 10:17:45 AM 27.1300 -96.9897 213° Southwest 356 410 26,700 -2,439 Descending Houston Center
Sat 10:18:47 AM 27.0492 -97.0511 214° Southwest 348 400 24,200 -2,424 Descending Houston Center
Sat 10:19:24 AM 26.9997 -97.0886 214° Southwest 348 400 22,700 -2,557 Descending Houston Center
Sat 10:19:48 AM 26.9644 -97.1128 211° Southwest 351 404 21,600 -2,512 Descending Houston Center
Sat 10:20:50 AM 26.8808 -97.1756 214° Southwest 349 402 19,100 -2,371 Descending Houston Center
Sat 10:21:52 AM 26.8014 -97.2325 213° Southwest 341 392 16,700 -2,390 Descending Houston Center
Sat 10:22:53 AM 26.7192 -97.2947 214° Southwest 333 383 14,200 -2,390 Descending Houston Center
Sat 10:23:55 AM 26.6539 -97.3622 223° Southwest 324 373 11,800 -2,000 Descending Houston Center
Sat 10:24:56 AM 26.5928 -97.4289 224° Southwest 308 354 10,100 -1,459 Descending Houston Center
Sat 10:25:46 AM 26.5483 -97.4792 225° Southwest 254 292 9,100 -1,548 Descending Houston Center
Sat 10:25:58 AM 26.5378 -97.4894 221° Southwest 254 292 8,500 -2,262 Descending Houston Center
Sat 10:26:47 AM 26.4975 -97.5328 224° Southwest 245 282 6,800 -2,262 Descending Houston Center
Sat 10:26:59 AM 26.4883 -97.5469 234° Southwest 253 291 6,200 -2,222 Descending Houston Center
Sat 10:27:41 AM 26.4528 -97.5878 226° Southwest 259 298 4,800 -2,129 Descending Houston Center
Sat 10:28:01 AM 26.4394 -97.6056 230° Southwest 256 295 4,000 -1,672 Descending Houston Center
Sat 10:28:42 AM 26.3967 -97.6328 210° Southwest 250 288 3,100 -1,355 Descending Houston Center
Sat 10:29:03 AM 26.3772 -97.6456 210° Southwest 235 270 2,600 -885 Descending Houston Center
Sat 10:29:43 AM 26.3469 -97.6583 201° Southwest 177 204 2,200 -787 Descending Houston Center
Sat 10:30:04 AM 26.3317 -97.6578 178° South 171 197 1,800 -800 Descending Houston Center
Sat 10:30:43 AM 26.3050 -97.6592 183° South 126 145 1,400 -677 Descending Houston Center
Sat 10:31:06 AM 26.2939 -97.6575 172° South 141 162 1,100 -689 Descending Houston Center
Sat 10:31:44 AM 26.2650 -97.6597 184° South 138 159 700 -774 Descending Houston Center
Sat 10:32:08 AM 26.2503 -97.6586 176° South 142 163 300 16,447 Descending Houston Center
Sat 10:33:09 AM 26.2153 -97.6583 180° South 141 162 24,000 23,311 Climbing Houston Center

Login

Don't have an account? Register now (free) for customized features, flight alerts, and more!